Time,TemperatureF,DewpointF,PressureIn,WindDirection,WindDirectionDegrees,WindSpeedMPH,WindSpeedGustMPH,Humidity,HourlyPrecipIn,Conditions,Clouds,dailyrainin,SoftwareType,DateUTC
2013-02-09 00:04:00,4.5,1.0,30.44,WNW,294,0.0,0.0,85,0.00,,,0.00,VWS V12.07,2013-02-09 06:04:00,
2013-02-09 00:09:00,4.4,0.9,30.44,WNW,294,0.0,0.0,85,0.00,,,0.00,VWS V12.07,2013-02-09 06:09:00,
2013-02-09 00:19:00,4.2,0.7,30.44,WNW,294,0.0,0.0,85,0.00,,,0.00,VWS V12.07,2013-02-09 06:19:00,
2013-02-09 00:25:00,4.3,0.8,30.45,WNW,294,0.0,0.0,85,0.00,,,0.00,VWS V12.07,2013-02-09 06:25:00,
2013-02-09 00:30:00,4.2,0.7,30.45,WNW,294,0.0,0.0,85,0.00,,,0.00,VWS V12.07,2013-02-09 06:30:00,
2013-02-09 00:39:00,4.1,0.6,30.45,WNW,294,0.0,0.0,85,0.00,,,0.00,VWS V12.07,2013-02-09 06:39:00,
2013-02-09 00:45:00,4.1,0.6,30.45,WNW,294,0.0,0.0,85,0.00,,,0.00,VWS V12.07,2013-02-09 06:45:00,
2013-02-09 00:49:00,4.0,0.5,30.45,WNW,294,0.0,0.0,85,0.00,,,0.00,VWS V12.07,2013-02-09 06:49:00,
2013-02-09 00:54:00,3.8,0.3,30.45,WNW,294,0.0,0.0,85,0.00,,,0.00,VWS V12.07,2013-02-09 06:54:00,
2013-02-09 00:59:00,3.7,0.2,30.45,WNW,294,0.0,0.0,85,0.00,,,0.00,VWS V12.07,2013-02-09 06:59:00,
2013-02-09 01:04:00,3.6,0.1,30.45,WNW,294,0.0,0.0,85,0.00,,,0.00,VWS V12.07,2013-02-09 07:04:00,
2013-02-09 01:09:00,3.5,0.0,30.45,WNW,294,0.0,0.0,85,0.00,,,0.00,VWS V12.07,2013-02-09 07:09:00,
2013-02-09 01:19:00,3.2,-0.3,30.45,WNW,294,0.0,0.0,85,0.00,,,0.00,VWS V12.07,2013-02-09 07:19:00,
2013-02-09 01:24:00,3.1,-0.4,30.45,WNW,294,0.0,0.0,85,0.00,,,0.00,VWS V12.07,2013-02-09 07:24:00,
2013-02-09 01:29:00,3.1,-0.4,30.45,WNW,294,0.0,0.0,85,0.00,,,0.00,VWS V12.07,2013-02-09 07:29:00,
2013-02-09 01:34:00,2.9,-0.6,30.45,WNW,294,0.0,0.0,85,0.00,,,0.00,VWS V12.07,2013-02-09 07:34:00,
2013-02-09 01:39:00,2.8,-0.7,30.45,WNW,294,0.0,0.0,85,0.00,,,0.00,VWS V12.07,2013-02-09 07:39:00,
2013-02-09 01:45:00,2.8,-0.7,30.45,WNW,294,0.0,0.0,85,0.00,,,0.00,VWS V12.07,2013-02-09 07:45:00,
2013-02-09 01:50:00,2.6,-0.9,30.46,WNW,294,0.0,0.0,85,0.00,,,0.00,VWS V12.07,2013-02-09 07:50:00,
2013-02-09 01:55:00,2.4,-1.1,30.45,WNW,294,0.0,0.0,85,0.00,,,0.00,VWS V12.07,2013-02-09 07:55:00,
2013-02-09 02:00:00,2.2,-1.5,30.45,WNW,294,0.0,0.0,84,0.00,,,0.00,VWS V12.07,2013-02-09 08:00:00,
2013-02-09 02:10:00,1.9,-1.8,30.45,WNW,294,0.0,0.0,84,0.00,,,0.00,VWS V12.07,2013-02-09 08:10:00,
2013-02-09 02:14:00,1.7,-2.0,30.45,WNW,294,0.0,0.0,84,0.00,,,0.00,VWS V12.07,2013-02-09 08:14:00,
2013-02-09 02:25:00,1.4,-2.3,30.45,WNW,294,0.0,0.0,84,0.00,,,0.00,VWS V12.07,2013-02-09 08:25:00,
2013-02-09 02:30:00,1.2,-2.5,30.45,WNW,294,0.0,0.0,84,0.00,,,0.00,VWS V12.07,2013-02-09 08:30:00,
2013-02-09 02:35:00,1.1,-2.6,30.45,WNW,294,0.0,0.0,84,0.00,,,0.00,VWS V12.07,2013-02-09 08:35:00,
2013-02-09 02:44:00,0.9,-2.8,30.45,WNW,294,0.0,0.0,84,0.00,,,0.00,VWS V12.07,2013-02-09 08:44:00,
2013-02-09 02:49:00,0.8,-2.9,30.45,WNW,294,0.0,0.0,84,0.00,,,0.00,VWS V12.07,2013-02-09 08:49:00,
2013-02-09 02:54:00,0.8,-2.9,30.44,WNW,294,0.0,0.0,84,0.00,,,0.00,VWS V12.07,2013-02-09 08:54:00,
2013-02-09 02:59:00,0.7,-3.0,30.44,WNW,294,0.0,0.0,84,0.00,,,0.00,VWS V12.07,2013-02-09 08:59:00,
2013-02-09 03:04:00,0.5,-3.2,30.44,WNW,294,0.0,0.0,84,0.00,,,0.00,VWS V12.07,2013-02-09 09:04:00,
2013-02-09 03:10:00,0.4,-3.3,30.43,WNW,294,0.0,0.0,84,0.00,,,0.00,VWS V12.07,2013-02-09 09:10:00,
2013-02-09 03:15:00,0.2,-3.5,30.43,WNW,294,0.0,0.0,84,0.00,,,0.00,VWS V12.07,2013-02-09 09:15:00,
2013-02-09 03:24:00,-0.1,-3.8,30.43,WNW,294,0.0,0.0,84,0.00,,,0.00,VWS V12.07,2013-02-09 09:24:00,
2013-02-09 03:29:00,-0.3,-4.0,30.43,WNW,294,0.0,0.0,84,0.00,,,0.00,VWS V12.07,2013-02-09 09:29:00,
2013-02-09 03:34:00,-0.4,-4.1,30.43,WNW,294,0.0,0.0,84,0.00,,,0.00,VWS V12.07,2013-02-09 09:34:00,
2013-02-09 03:39:00,-0.4,-4.1,30.43,WNW,294,0.0,0.0,84,0.00,,,0.00,VWS V12.07,2013-02-09 09:39:00,
2013-02-09 03:44:00,-0.3,-3.7,30.43,WNW,294,0.0,0.0,85,0.00,,,0.00,VWS V12.07,2013-02-09 09:44:00,
2013-02-09 03:49:00,-0.3,-4.0,30.43,WNW,294,0.0,0.0,84,0.00,,,0.00,VWS V12.07,2013-02-09 09:49:00,
2013-02-09 03:59:00,-0.6,-4.3,30.42,WNW,294,0.0,0.0,84,0.00,,,0.00,VWS V12.07,2013-02-09 09:59:00,
2013-02-09 04:04:00,-0.7,-4.4,30.42,WNW,294,0.0,0.0,84,0.00,,,0.00,VWS V12.07,2013-02-09 10:04:00,
2013-02-09 04:14:00,-0.9,-4.6,30.42,WNW,294,0.0,0.0,84,0.00,,,0.00,VWS V12.07,2013-02-09 10:14:00,
2013-02-09 04:19:00,-1.0,-4.7,30.42,WNW,294,0.0,0.0,84,0.00,,,0.00,VWS V12.07,2013-02-09 10:19:00,
2013-02-09 04:25:00,-1.1,-4.8,30.42,WNW,294,0.0,0.0,84,0.00,,,0.00,VWS V12.07,2013-02-09 10:25:00,
2013-02-09 04:30:00,-1.2,-4.8,30.42,WNW,294,0.0,0.0,84,0.00,,,0.00,VWS V12.07,2013-02-09 10:30:00,
2013-02-09 04:39:00,-1.2,-4.8,30.42,WNW,294,0.0,0.0,84,0.00,,,0.00,VWS V12.07,2013-02-09 10:39:00,
2013-02-09 04:44:00,-1.2,-4.8,30.42,WNW,294,0.0,0.0,84,0.00,,,0.00,VWS V12.07,2013-02-09 10:44:00,
2013-02-09 04:50:00,-1.2,-4.8,30.42,WNW,294,0.0,0.0,84,0.00,,,0.00,VWS V12.07,2013-02-09 10:50:00,
2013-02-09 04:59:00,-1.3,-4.9,30.41,WNW,294,0.0,0.0,84,0.00,,,0.00,VWS V12.07,2013-02-09 10:59:00,
2013-02-09 05:05:00,-1.3,-5.2,30.41,WNW,294,0.0,0.0,83,0.00,,,0.00,VWS V12.07,2013-02-09 11:05:00,
2013-02-09 05:09:00,-1.5,-5.4,30.40,WNW,294,0.0,0.0,83,0.00,,,0.00,VWS V12.07,2013-02-09 11:09:00,
2013-02-09 05:15:00,-1.6,-5.5,30.40,WNW,294,0.0,0.0,83,0.00,,,0.00,VWS V12.07,2013-02-09 11:15:00,
2013-02-09 05:25:00,-1.8,-5.7,30.40,WNW,294,0.0,0.0,83,0.00,,,0.00,VWS V12.07,2013-02-09 11:25:00,
2013-02-09 05:29:00,-1.7,-5.3,30.41,WNW,294,0.0,0.0,84,0.00,,,0.00,VWS V12.07,2013-02-09 11:29:00,
2013-02-09 05:39:00,-1.7,-5.3,30.41,WNW,294,0.0,0.0,84,0.00,,,0.00,VWS V12.07,2013-02-09 11:39:00,
2013-02-09 05:45:00,-1.6,-5.2,30.40,WNW,294,0.0,0.0,84,0.00,,,0.00,VWS V12.07,2013-02-09 11:45:00,
2013-02-09 05:50:00,-1.6,-5.2,30.40,WNW,294,0.0,0.0,84,0.00,,,0.00,VWS V12.07,2013-02-09 11:50:00,
2013-02-09 05:55:00,-1.6,-5.5,30.39,WNW,294,0.0,0.0,83,0.00,,,0.00,VWS V12.07,2013-02-09 11:55:00,
2013-02-09 06:00:00,-1.6,-5.5,30.39,WNW,294,0.0,0.0,83,0.00,,,0.00,VWS V12.07,2013-02-09 12:00:00,
2013-02-09 06:04:00,-1.6,-5.5,30.39,WNW,294,0.0,0.0,83,0.00,,,0.00,VWS V12.07,2013-02-09 12:04:00,
2013-02-09 06:09:00,-1.5,-5.4,30.39,WNW,294,0.0,0.0,83,0.00,,,0.00,VWS V12.07,2013-02-09 12:09:00,
2013-02-09 06:14:00,-1.5,-5.4,30.39,WNW,294,0.0,0.0,83,0.00,,,0.00,VWS V12.07,2013-02-09 12:14:00,
2013-02-09 06:20:00,-1.4,-5.1,30.39,WNW,294,0.0,0.0,84,0.00,,,0.00,VWS V12.07,2013-02-09 12:20:00,
2013-02-09 06:29:00,-1.1,-4.8,30.38,WNW,294,0.0,0.0,84,0.00,,,0.00,VWS V12.07,2013-02-09 12:29:00,
2013-02-09 06:34:00,-0.9,-4.6,30.39,WNW,294,0.0,0.0,84,0.00,,,0.00,VWS V12.07,2013-02-09 12:34:00,
2013-02-09 06:39:00,-0.6,-4.3,30.38,WNW,294,0.0,0.0,84,0.00,,,0.00,VWS V12.07,2013-02-09 12:39:00,
2013-02-09 06:44:00,-0.5,-4.2,30.38,WNW,294,0.0,0.0,84,0.00,,,0.00,VWS V12.07,2013-02-09 12:44:00,
2013-02-09 06:49:00,-0.3,-4.0,30.38,WNW,294,0.0,0.0,84,0.00,,,0.00,VWS V12.07,2013-02-09 12:49:00,
2013-02-09 06:54:00,-0.3,-4.0,30.38,WNW,294,0.0,0.0,84,0.00,,,0.00,VWS V12.07,2013-02-09 12:54:00,
2013-02-09 06:59:00,-0.1,-3.5,30.38,WNW,294,0.0,0.0,85,0.00,,,0.00,VWS V12.07,2013-02-09 12:59:00,
2013-02-09 07:04:00,0.4,-2.8,30.39,WNW,294,0.0,0.0,86,0.00,,,0.00,VWS V12.07,2013-02-09 13:04:00,
2013-02-09 07:09:00,0.9,-2.3,30.38,WNW,294,0.0,0.0,86,0.00,,,0.00,VWS V12.07,2013-02-09 13:09:00,
2013-02-09 07:15:00,1.1,-2.1,30.38,WNW,294,0.0,0.0,86,0.00,,,0.00,VWS V12.07,2013-02-09 13:15:00,
2013-02-09 07:24:00,1.6,-1.6,30.38,WNW,294,0.0,0.0,86,0.00,,,0.00,VWS V12.07,2013-02-09 13:24:00,
2013-02-09 07:30:00,1.7,-1.5,30.38,WNW,294,0.0,0.0,86,0.00,,,0.00,VWS V12.07,2013-02-09 13:30:00,
2013-02-09 07:35:00,1.6,-1.9,30.38,WNW,294,0.0,0.0,85,0.00,,,0.00,VWS V12.07,2013-02-09 13:35:00,
2013-02-09 07:44:00,1.8,-1.7,30.37,WNW,294,0.0,0.0,85,0.00,,,0.00,VWS V12.07,2013-02-09 13:44:00,
2013-02-09 07:49:00,2.0,-1.5,30.37,WNW,294,0.0,0.0,85,0.00,,,0.00,VWS V12.07,2013-02-09 13:49:00,
2013-02-09 07:54:00,2.2,-1.3,30.37,WNW,294,0.0,0.0,85,0.00,,,0.00,VWS V12.07,2013-02-09 13:54:00,
2013-02-09 07:59:00,2.7,-0.5,30.37,WNW,294,0.0,0.0,86,0.00,,,0.00,VWS V12.07,2013-02-09 13:59:00,
2013-02-09 08:04:00,3.5,0.5,30.37,WNW,294,0.0,0.0,87,0.00,,,0.00,VWS V12.07,2013-02-09 14:04:00,
2013-02-09 08:09:00,4.2,1.2,30.37,WNW,294,0.0,0.0,87,0.00,,,0.00,VWS V12.07,2013-02-09 14:09:00,
2013-02-09 08:14:00,5.1,2.3,30.37,WNW,296,0.0,1.0,88,0.00,,,0.00,VWS V12.07,2013-02-09 14:14:00,
2013-02-09 08:19:00,5.8,3.0,30.37,WNW,297,0.0,1.0,88,0.00,,,0.00,VWS V12.07,2013-02-09 14:19:00,
2013-02-09 08:24:00,6.4,3.6,30.37,WNW,297,0.0,1.0,88,0.00,,,0.00,VWS V12.07,2013-02-09 14:24:00,
2013-02-09 08:30:00,7.0,4.4,30.37,WNW,296,0.0,1.0,89,0.00,,,0.00,VWS V12.07,2013-02-09 14:30:00,
2013-02-09 08:35:00,7.4,4.8,30.37,WNW,296,0.0,0.0,89,0.00,,,0.00,VWS V12.07,2013-02-09 14:35:00,
2013-02-09 08:39:00,7.9,5.3,30.36,WNW,297,0.0,0.0,89,0.00,,,0.00,VWS V12.07,2013-02-09 14:39:00,
2013-02-09 08:45:00,8.3,5.5,30.36,WNW,297,0.0,0.0,88,0.00,,,0.00,VWS V12.07,2013-02-09 14:45:00,
2013-02-09 08:50:00,8.7,6.1,30.36,WNW,297,0.0,1.0,89,0.00,,,0.00,VWS V12.07,2013-02-09 14:50:00,
2013-02-09 08:55:00,9.1,6.5,30.36,WNW,296,0.0,1.0,89,0.00,,,0.00,VWS V12.07,2013-02-09 14:55:00,
2013-02-09 09:00:00,9.5,6.7,30.35,WNW,297,0.0,1.0,88,0.00,,,0.00,VWS V12.07,2013-02-09 15:00:00,
2013-02-09 09:05:00,9.9,7.1,30.35,WNW,297,0.0,0.0,88,0.00,,,0.00,VWS V12.07,2013-02-09 15:05:00,
2013-02-09 09:10:00,10.3,7.5,30.35,WNW,300,0.0,1.0,88,0.00,,,0.00,VWS V12.07,2013-02-09 15:10:00,
2013-02-09 09:15:00,10.7,7.8,30.35,WNW,300,0.0,1.0,88,0.00,,,0.00,VWS V12.07,2013-02-09 15:15:00,
2013-02-09 09:20:00,11.3,8.4,30.34,NNW,339,0.0,2.0,88,0.00,,,0.00,VWS V12.07,2013-02-09 15:20:00,
2013-02-09 09:30:00,13.0,10.1,30.34,East,94,0.0,3.0,88,0.00,,,0.00,VWS V12.07,2013-02-09 15:30:00,
2013-02-09 09:39:00,15.1,11.9,30.34,West,269,0.0,3.0,87,0.00,,,0.00,VWS V12.07,2013-02-09 15:39:00,
2013-02-09 09:44:00,16.1,12.4,30.33,NE,49,0.0,4.0,85,0.00,,,0.00,VWS V12.07,2013-02-09 15:44:00,
2013-02-09 09:50:00,16.8,12.8,30.33,East,86,0.0,5.0,84,0.00,,,0.00,VWS V12.07,2013-02-09 15:50:00,
2013-02-09 09:54:00,17.5,12.9,30.33,NNE,28,1.0,5.0,82,0.00,,,0.00,VWS V12.07,2013-02-09 15:54:00,
2013-02-09 10:00:00,18.0,13.2,30.32,WSW,245,0.0,5.0,81,0.00,,,0.00,VWS V12.07,2013-02-09 16:00:00,
2013-02-09 10:05:00,18.6,13.5,30.33,West,279,4.0,4.0,80,0.00,,,0.00,VWS V12.07,2013-02-09 16:05:00,
2013-02-09 10:10:00,19.2,13.8,30.32,South,176,0.0,5.0,79,0.00,,,0.00,VWS V12.07,2013-02-09 16:10:00,
2013-02-09 10:20:00,20.3,14.0,30.32,East,101,2.0,5.0,76,0.00,,,0.00,VWS V12.07,2013-02-09 16:20:00,
2013-02-09 10:24:00,20.6,13.9,30.31,East,79,0.0,5.0,75,0.00,,,0.00,VWS V12.07,2013-02-09 16:24:00,
2013-02-09 10:29:00,20.8,14.1,30.31,South,169,0.0,5.0,75,0.00,,,0.00,VWS V12.07,2013-02-09 16:29:00,
2013-02-09 10:34:00,21.0,14.0,30.31,ENE,59,0.0,6.0,74,0.00,,,0.00,VWS V12.07,2013-02-09 16:34:00,
2013-02-09 10:39:00,21.1,14.1,30.31,NE,41,0.0,6.0,74,0.00,,,0.00,VWS V12.07,2013-02-09 16:39:00,
2013-02-09 10:45:00,21.4,14.7,30.30,SSE,159,2.0,6.0,75,0.00,,,0.00,VWS V12.07,2013-02-09 16:45:00,
2013-02-09 10:55:00,22.1,15.1,30.31,SW,234,1.0,6.0,74,0.00,,,0.00,VWS V12.07,2013-02-09 16:55:00,
2013-02-09 11:05:00,22.9,15.6,30.31,SW,223,1.0,3.0,73,0.00,,,0.00,VWS V12.07,2013-02-09 17:05:00,
2013-02-09 11:10:00,23.3,15.6,30.30,NNW,342,1.0,3.0,72,0.00,,,0.00,VWS V12.07,2013-02-09 17:10:00,
2013-02-09 11:15:00,23.5,15.8,30.30,East,97,0.0,3.0,72,0.00,,,0.00,VWS V12.07,2013-02-09 17:15:00,
2013-02-09 11:25:00,24.0,16.3,30.30,SSE,148,0.0,4.0,72,0.00,,,0.00,VWS V12.07,2013-02-09 17:25:00,
2013-02-09 11:30:00,24.3,16.3,30.29,West,263,0.0,4.0,71,0.00,,,0.00,VWS V12.07,2013-02-09 17:30:00,
2013-02-09 11:39:00,24.6,15.9,30.28,South,178,0.0,6.0,69,0.00,,,0.00,VWS V12.07,2013-02-09 17:39:00,
2013-02-09 11:44:00,24.4,15.7,30.29,WSW,248,0.0,6.0,69,0.00,,,0.00,VWS V12.07,2013-02-09 17:44:00,
2013-02-09 11:49:00,24.2,15.8,30.28,WSW,252,0.0,6.0,70,0.00,,,0.00,VWS V12.07,2013-02-09 17:49:00,
2013-02-09 11:54:00,24.1,15.8,30.28,SE,132,0.0,6.0,70,0.00,,,0.00,VWS V12.07,2013-02-09 17:54:00,
2013-02-09 12:00:00,24.1,16.1,30.28,WSW,256,9.0,9.0,71,0.00,,,0.00,VWS V12.07,2013-02-09 18:00:00,
2013-02-09 12:10:00,23.6,15.6,30.27,NNW,330,0.0,6.0,71,0.00,,,0.00,VWS V12.07,2013-02-09 18:10:00,
2013-02-09 12:14:00,23.6,15.9,30.28,SW,230,3.0,6.0,72,0.00,,,0.00,VWS V12.07,2013-02-09 18:14:00,
2013-02-09 12:19:00,23.4,15.7,30.28,North,349,2.0,6.0,72,0.00,,,0.00,VWS V12.07,2013-02-09 18:19:00,
2013-02-09 12:25:00,23.2,15.5,30.28,SE,126,0.0,6.0,72,0.00,,,0.00,VWS V12.07,2013-02-09 18:25:00,
2013-02-09 12:30:00,23.0,15.0,30.28,SSW,193,0.0,6.0,71,0.00,,,0.00,VWS V12.07,2013-02-09 18:30:00,
2013-02-09 12:39:00,22.8,15.1,30.28,SSW,198,0.0,8.0,72,0.00,,,0.00,VWS V12.07,2013-02-09 18:39:00,
2013-02-09 12:44:00,22.9,15.2,30.28,East,101,0.0,8.0,72,0.00,,,0.00,VWS V12.07,2013-02-09 18:44:00,
2013-02-09 12:50:00,22.8,14.8,30.28,East,93,0.0,8.0,71,0.00,,,0.00,VWS V12.07,2013-02-09 18:50:00,
2013-02-09 12:55:00,22.6,14.6,30.27,West,265,1.0,8.0,71,0.00,,,0.00,VWS V12.07,2013-02-09 18:55:00,
2013-02-09 13:00:00,22.4,14.1,30.28,ENE,61,0.0,8.0,70,0.00,,,0.00,VWS V12.07,2013-02-09 19:00:00,
2013-02-09 13:05:00,22.1,14.1,30.28,East,99,0.0,4.0,71,0.00,,,0.00,VWS V12.07,2013-02-09 19:05:00,
2013-02-09 13:14:00,21.7,14.1,30.27,ESE,105,0.0,5.0,72,0.00,,,0.00,VWS V12.07,2013-02-09 19:14:00,
2013-02-09 13:19:00,21.7,14.1,30.27,SE,127,0.0,5.0,72,0.00,,,0.00,VWS V12.07,2013-02-09 19:19:00,
2013-02-09 13:25:00,21.6,14.0,30.27,ENE,59,0.0,5.0,72,0.00,,,0.00,VWS V12.07,2013-02-09 19:25:00,
2013-02-09 13:30:00,21.7,14.1,30.27,ESE,114,0.0,5.0,72,0.00,,,0.00,VWS V12.07,2013-02-09 19:30:00,
2013-02-09 13:35:00,22.1,14.5,30.27,West,259,7.0,7.0,72,0.00,,,0.00,VWS V12.07,2013-02-09 19:35:00,
2013-02-09 13:44:00,22.6,14.0,30.27,SSW,205,1.0,7.0,69,0.00,,,0.00,VWS V12.07,2013-02-09 19:44:00,
2013-02-09 13:49:00,22.5,13.9,30.26,SE,144,0.0,7.0,69,0.00,,,0.00,VWS V12.07,2013-02-09 19:49:00,
2013-02-09 13:54:00,22.5,13.9,30.26,SSE,157,2.0,7.0,69,0.00,,,0.00,VWS V12.07,2013-02-09 19:54:00,
2013-02-09 13:59:00,22.4,13.8,30.26,South,188,1.0,7.0,69,0.00,,,0.00,VWS V12.07,2013-02-09 19:59:00,
2013-02-09 14:05:00,22.3,14.0,30.26,East,85,0.0,2.0,70,0.00,,,0.00,VWS V12.07,2013-02-09 20:05:00,
2013-02-09 14:10:00,22.2,13.9,30.26,SW,236,1.0,5.0,70,0.00,,,0.00,VWS V12.07,2013-02-09 20:10:00,
2013-02-09 14:15:00,22.2,13.6,30.26,SW,231,0.0,5.0,69,0.00,,,0.00,VWS V12.07,2013-02-09 20:15:00,
2013-02-09 14:20:00,22.2,13.6,30.26,East,82,1.0,7.0,69,0.00,,,0.00,VWS V12.07,2013-02-09 20:20:00,
2013-02-09 14:30:00,21.8,13.5,30.26,SW,216,0.0,8.0,70,0.00,,,0.00,VWS V12.07,2013-02-09 20:30:00,
2013-02-09 14:35:00,21.7,13.4,30.26,ENE,65,0.0,4.0,70,0.00,,,0.00,VWS V12.07,2013-02-09 20:35:00,
2013-02-09 14:40:00,21.6,13.3,30.26,West,261,0.0,5.0,70,0.00,,,0.00,VWS V12.07,2013-02-09 20:40:00,
2013-02-09 14:45:00,21.3,13.1,30.26,SE,146,0.0,6.0,70,0.00,,,0.00,VWS V12.07,2013-02-09 20:45:00,
2013-02-09 14:50:00,21.2,13.3,30.26,West,268,0.0,6.0,71,0.00,,,0.00,VWS V12.07,2013-02-09 20:50:00,
2013-02-09 14:54:00,21.2,13.3,30.25,SW,215,1.0,6.0,71,0.00,,,0.00,VWS V12.07,2013-02-09 20:54:00,
2013-02-09 14:59:00,21.0,13.1,30.25,NNE,12,0.0,9.0,71,0.00,,,0.00,VWS V12.07,2013-02-09 20:59:00,
2013-02-09 15:05:00,20.8,12.9,30.25,SSW,204,1.0,5.0,71,0.00,,,0.00,VWS V12.07,2013-02-09 21:05:00,
2013-02-09 15:14:00,20.6,13.0,30.25,East,81,1.0,6.0,72,0.00,,,0.00,VWS V12.07,2013-02-09 21:14:00,
2013-02-09 15:20:00,20.4,12.8,30.25,SSE,150,0.0,6.0,72,0.00,,,0.00,VWS V12.07,2013-02-09 21:20:00,
2013-02-09 15:25:00,20.3,13.0,30.25,WNW,294,0.0,6.0,73,0.00,,,0.00,VWS V12.07,2013-02-09 21:25:00,
2013-02-09 15:30:00,20.2,12.9,30.25,North,360,1.0,6.0,73,0.00,,,0.00,VWS V12.07,2013-02-09 21:30:00,
2013-02-09 15:39:00,20.0,13.1,30.25,NE,51,0.0,2.0,74,0.00,,,0.00,VWS V12.07,2013-02-09 21:39:00,
2013-02-09 15:45:00,19.8,12.9,30.25,West,264,0.0,4.0,74,0.00,,,0.00,VWS V12.07,2013-02-09 21:45:00,
2013-02-09 15:50:00,19.7,13.1,30.25,WSW,241,0.0,4.0,75,0.00,,,0.00,VWS V12.07,2013-02-09 21:50:00,
2013-02-09 15:55:00,19.7,13.1,30.25,SW,234,0.0,4.0,75,0.00,,,0.00,VWS V12.07,2013-02-09 21:55:00,
2013-02-09 16:00:00,19.4,12.8,30.25,WSW,245,0.0,4.0,75,0.00,,,0.00,VWS V12.07,2013-02-09 22:00:00,
2013-02-09 16:05:00,19.1,12.8,30.25,NE,55,0.0,1.0,76,0.00,,,0.00,VWS V12.07,2013-02-09 22:05:00,
2013-02-09 16:10:00,18.8,12.5,30.24,South,172,0.0,1.0,76,0.00,,,0.00,VWS V12.07,2013-02-09 22:10:00,
2013-02-09 16:14:00,18.7,12.7,30.24,South,186,0.0,2.0,77,0.00,,,0.00,VWS V12.07,2013-02-09 22:14:00,
2013-02-09 16:20:00,18.6,12.9,30.24,SW,222,0.0,2.0,78,0.00,,,0.00,VWS V12.07,2013-02-09 22:20:00,
2013-02-09 16:25:00,18.6,13.2,30.24,SSE,165,0.0,2.0,79,0.00,,,0.00,VWS V12.07,2013-02-09 22:25:00,
2013-02-09 16:30:00,18.6,13.2,30.24,NW,315,0.0,2.0,79,0.00,,,0.00,VWS V12.07,2013-02-09 22:30:00,
2013-02-09 16:35:00,18.6,13.5,30.24,NNW,329,0.0,1.0,80,0.00,,,0.00,VWS V12.07,2013-02-09 22:35:00,
2013-02-09 16:40:00,18.6,13.5,30.24,NE,54,0.0,2.0,80,0.00,,,0.00,VWS V12.07,2013-02-09 22:40:00,
2013-02-09 16:45:00,18.6,13.5,30.24,WSW,254,1.0,4.0,80,0.00,,,0.00,VWS V12.07,2013-02-09 22:45:00,
2013-02-09 16:55:00,18.6,13.8,30.24,SW,233,0.0,4.0,81,0.00,,,0.00,VWS V12.07,2013-02-09 22:55:00,
2013-02-09 17:00:00,18.5,13.6,30.24,SW,233,1.0,4.0,81,0.00,,,0.00,VWS V12.07,2013-02-09 23:00:00,
2013-02-09 17:05:00,18.5,13.6,30.24,WSW,249,0.0,2.0,81,0.00,,,0.00,VWS V12.07,2013-02-09 23:05:00,
2013-02-09 17:10:00,18.5,13.6,30.24,WSW,241,0.0,2.0,81,0.00,,,0.00,VWS V12.07,2013-02-09 23:10:00,
2013-02-09 17:15:00,18.4,13.8,30.24,WSW,241,0.0,2.0,82,0.00,,,0.00,VWS V12.07,2013-02-09 23:15:00,
2013-02-09 17:20:00,18.4,13.8,30.24,WSW,240,1.0,2.0,82,0.00,,,0.00,VWS V12.07,2013-02-09 23:20:00,
2013-02-09 17:29:00,18.4,14.1,30.24,WSW,240,0.0,2.0,83,0.00,,,0.00,VWS V12.07,2013-02-09 23:29:00,
2013-02-09 17:34:00,18.4,14.1,30.24,WSW,240,0.0,0.0,83,0.00,,,0.00,VWS V12.07,2013-02-09 23:34:00,
2013-02-09 17:40:00,18.4,14.1,30.24,WSW,240,0.0,1.0,83,0.00,,,0.00,VWS V12.07,2013-02-09 23:40:00,
2013-02-09 17:45:00,18.4,14.4,30.24,WSW,241,0.0,2.0,84,0.00,,,0.00,VWS V12.07,2013-02-09 23:45:00,
2013-02-09 17:50:00,18.4,14.4,30.23,SE,141,0.0,3.0,84,0.00,,,0.00,VWS V12.07,2013-02-09 23:50:00,
2013-02-09 17:55:00,18.5,14.5,30.23,East,85,0.0,3.0,84,0.00,,,0.00,VWS V12.07,2013-02-09 23:55:00,
2013-02-09 18:00:00,18.5,14.8,30.23,SE,129,1.0,3.0,85,0.00,,,0.00,VWS V12.07,2013-02-10 00:00:00,
2013-02-09 18:05:00,18.5,14.8,30.23,NE,49,2.0,2.0,85,0.00,,,0.00,VWS V12.07,2013-02-10 00:05:00,
2013-02-09 18:15:00,18.7,15.2,30.23,NE,45,0.0,3.0,86,0.00,,,0.00,VWS V12.07,2013-02-10 00:15:00,
2013-02-09 18:25:00,18.7,15.2,30.23,NE,37,0.0,3.0,86,0.00,,,0.00,VWS V12.07,2013-02-10 00:25:00,
2013-02-09 18:34:00,18.8,15.6,30.22,NE,38,0.0,1.0,87,0.00,,,0.00,VWS V12.07,2013-02-10 00:34:00,
2013-02-09 18:40:00,18.9,15.7,30.22,NW,316,0.0,3.0,87,0.00,,,0.00,VWS V12.07,2013-02-10 00:40:00,
2013-02-09 18:50:00,19.0,16.0,30.23,NW,317,0.0,3.0,88,0.00,,,0.00,VWS V12.07,2013-02-10 00:50:00,
2013-02-09 18:54:00,19.0,16.0,30.23,NW,317,0.0,3.0,88,0.00,,,0.00,VWS V12.07,2013-02-10 00:54:00,
2013-02-09 18:59:00,19.0,16.0,30.22,NW,317,0.0,3.0,88,0.00,,,0.00,VWS V12.07,2013-02-10 00:59:00,
2013-02-09 19:05:00,19.1,16.1,30.22,SE,132,0.0,0.0,88,0.00,,,0.00,VWS V12.07,2013-02-10 01:05:00,
2013-02-09 19:10:00,19.1,16.1,30.22,SE,132,0.0,0.0,88,0.00,,,0.00,VWS V12.07,2013-02-10 01:10:00,
2013-02-09 19:15:00,19.1,16.1,30.22,SE,133,0.0,1.0,88,0.00,,,0.00,VWS V12.07,2013-02-10 01:15:00,
2013-02-09 19:19:00,19.2,16.2,30.22,SE,133,0.0,1.0,88,0.00,,,0.00,VWS V12.07,2013-02-10 01:19:00,
2013-02-09 19:25:00,19.2,16.2,30.22,SE,133,0.0,2.0,88,0.00,,,0.00,VWS V12.07,2013-02-10 01:25:00,
2013-02-09 19:30:00,19.3,16.6,30.22,SE,133,0.0,2.0,89,0.00,,,0.00,VWS V12.07,2013-02-10 01:30:00,
2013-02-09 19:35:00,19.4,16.7,30.22,SE,133,0.0,0.0,89,0.00,,,0.00,VWS V12.07,2013-02-10 01:35:00,
2013-02-09 19:45:00,19.4,16.7,30.22,SE,134,0.0,1.0,89,0.00,,,0.00,VWS V12.07,2013-02-10 01:45:00,
2013-02-09 19:50:00,19.5,16.8,30.21,SE,134,0.0,1.0,89,0.00,,,0.00,VWS V12.07,2013-02-10 01:50:00,
2013-02-09 20:00:00,19.5,16.8,30.21,SE,134,0.0,1.0,89,0.00,,,0.00,VWS V12.07,2013-02-10 02:00:00,
2013-02-09 20:10:00,19.6,16.9,30.21,SE,133,0.0,0.0,89,0.00,,,0.00,VWS V12.07,2013-02-10 02:10:00,
2013-02-09 20:15:00,19.7,17.0,30.21,East,96,0.0,1.0,89,0.00,,,0.00,VWS V12.07,2013-02-10 02:15:00,
2013-02-09 20:25:00,19.7,17.0,30.21,East,96,0.0,1.0,89,0.00,,,0.00,VWS V12.07,2013-02-10 02:25:00,
2013-02-09 20:30:00,19.7,17.0,30.21,East,96,0.0,1.0,89,0.00,,,0.00,VWS V12.07,2013-02-10 02:30:00,
2013-02-09 20:35:00,19.7,17.0,30.21,East,82,0.0,1.0,89,0.00,,,0.00,VWS V12.07,2013-02-10 02:35:00,
2013-02-09 20:40:00,19.8,17.1,30.21,East,82,0.0,1.0,89,0.00,,,0.00,VWS V12.07,2013-02-10 02:40:00,
2013-02-09 20:45:00,19.8,17.1,30.20,ENE,78,0.0,1.0,89,0.00,,,0.00,VWS V12.07,2013-02-10 02:45:00,
2013-02-09 20:50:00,19.9,17.2,30.21,ENE,73,0.0,1.0,89,0.00,,,0.00,VWS V12.07,2013-02-10 02:50:00,
2013-02-09 20:55:00,19.9,17.2,30.21,ENE,74,0.0,1.0,89,0.00,,,0.00,VWS V12.07,2013-02-10 02:55:00,
2013-02-09 21:00:00,20.0,17.3,30.21,ENE,72,0.0,1.0,89,0.00,,,0.00,VWS V12.07,2013-02-10 03:00:00,
2013-02-09 21:10:00,20.0,17.3,30.20,NE,44,0.0,0.0,89,0.00,,,0.00,VWS V12.07,2013-02-10 03:10:00,
2013-02-09 21:15:00,20.1,17.6,30.20,NE,44,0.0,0.0,90,0.00,,,0.00,VWS V12.07,2013-02-10 03:15:00,
2013-02-09 21:25:00,20.1,17.4,30.20,NE,44,0.0,0.0,89,0.00,,,0.00,VWS V12.07,2013-02-10 03:25:00,
2013-02-09 21:30:00,20.2,17.7,30.20,NE,44,0.0,2.0,90,0.00,,,0.00,VWS V12.07,2013-02-10 03:30:00,
2013-02-09 21:35:00,20.3,17.8,30.20,NE,44,0.0,1.0,90,0.00,,,0.00,VWS V12.07,2013-02-10 03:35:00,
2013-02-09 21:40:00,20.4,17.9,30.20,NE,44,0.0,1.0,90,0.00,,,0.00,VWS V12.07,2013-02-10 03:40:00,
2013-02-09 21:45:00,20.4,17.9,30.20,NE,44,0.0,1.0,90,0.00,,,0.00,VWS V12.07,2013-02-10 03:45:00,
2013-02-09 21:50:00,20.5,18.0,30.19,NE,44,0.0,1.0,90,0.00,,,0.00,VWS V12.07,2013-02-10 03:50:00,
2013-02-09 21:55:00,20.5,18.0,30.19,NE,44,0.0,1.0,90,0.00,,,0.00,VWS V12.07,2013-02-10 03:55:00,
2013-02-09 22:00:00,20.5,18.0,30.20,NE,44,0.0,1.0,90,0.00,,,0.00,VWS V12.07,2013-02-10 04:00:00,
2013-02-09 22:05:00,20.6,18.1,30.19,NE,44,0.0,0.0,90,0.00,,,0.00,VWS V12.07,2013-02-10 04:05:00,
2013-02-09 22:10:00,20.6,18.1,30.19,NE,44,0.0,1.0,90,0.00,,,0.00,VWS V12.07,2013-02-10 04:10:00,
2013-02-09 22:15:00,20.6,18.1,30.19,NE,44,0.0,1.0,90,0.00,,,0.00,VWS V12.07,2013-02-10 04:15:00,
2013-02-09 22:20:00,20.7,18.5,30.19,NE,44,0.0,1.0,91,0.00,,,0.00,VWS V12.07,2013-02-10 04:20:00,
2013-02-09 22:25:00,20.7,18.5,30.19,NE,44,0.0,1.0,91,0.00,,,0.00,VWS V12.07,2013-02-10 04:25:00,
2013-02-09 22:34:00,20.8,18.6,30.19,NNE,17,0.0,1.0,91,0.00,,,0.00,VWS V12.07,2013-02-10 04:34:00,
2013-02-09 22:40:00,20.9,18.7,30.19,NNE,17,0.0,2.0,91,0.00,,,0.00,VWS V12.07,2013-02-10 04:40:00,
2013-02-09 22:50:00,20.9,18.7,30.18,NNE,18,0.0,2.0,91,0.00,,,0.00,VWS V12.07,2013-02-10 04:50:00,
2013-02-09 22:55:00,21.0,18.8,30.18,NNE,18,0.0,2.0,91,0.00,,,0.00,VWS V12.07,2013-02-10 04:55:00,
2013-02-09 23:05:00,21.1,18.9,30.17,NE,51,0.0,3.0,91,0.00,,,0.00,VWS V12.07,2013-02-10 05:05:00,
2013-02-09 23:10:00,21.1,18.9,30.17,NE,51,0.0,3.0,91,0.00,,,0.00,VWS V12.07,2013-02-10 05:10:00,
2013-02-09 23:15:00,21.2,19.0,30.17,NE,51,0.0,3.0,91,0.00,,,0.00,VWS V12.07,2013-02-10 05:15:00,
2013-02-09 23:19:00,21.3,19.1,30.17,NE,53,0.0,3.0,91,0.00,,,0.00,VWS V12.07,2013-02-10 05:19:00,
2013-02-09 23:24:00,21.3,19.1,30.17,NE,53,1.0,3.0,91,0.00,,,0.00,VWS V12.07,2013-02-10 05:24:00,
2013-02-09 23:30:00,21.3,19.1,30.17,NE,52,0.0,3.0,91,0.00,,,0.00,VWS V12.07,2013-02-10 05:30:00,
2013-02-09 23:35:00,21.3,19.1,30.16,NE,53,0.0,0.0,91,0.00,,,0.00,VWS V12.07,2013-02-10 05:35:00,
2013-02-09 23:45:00,21.4,19.2,30.16,NE,52,0.0,0.0,91,0.00,,,0.00,VWS V12.07,2013-02-10 05:45:00,
2013-02-09 23:50:00,21.4,19.2,30.16,NE,53,0.0,0.0,91,0.00,,,0.00,VWS V12.07,2013-02-10 05:50:00,